sensor_id;sensor_type;location;lat;lon;timestamp;P1;durP1;ratioP1;P2;durP2;ratioP2
2019;SDS011;1014;51.960;8.542;2023-07-31T00:00:29;38.60;;;36.37;;
2019;SDS011;1014;51.960;8.542;2023-07-31T00:02:56;40.83;;;38.67;;
2019;SDS011;1014;51.960;8.542;2023-07-31T00:05:23;39.33;;;37.23;;
2019;SDS011;1014;51.960;8.542;2023-07-31T00:07:50;40.33;;;38.13;;
2019;SDS011;1014;51.960;8.542;2023-07-31T00:10:18;42.23;;;39.53;;
2019;SDS011;1014;51.960;8.542;2023-07-31T00:12:47;41.03;;;38.83;;
2019;SDS011;1014;51.960;8.542;2023-07-31T00:15:14;41.30;;;38.90;;
2019;SDS011;1014;51.960;8.542;2023-07-31T00:17:41;41.40;;;39.00;;
2019;SDS011;1014;51.960;8.542;2023-07-31T00:20:09;42.70;;;39.97;;
2019;SDS011;1014;51.960;8.542;2023-07-31T00:22:36;41.23;;;38.83;;
2019;SDS011;1014;51.960;8.542;2023-07-31T00:25:03;39.67;;;37.57;;
2019;SDS011;1014;51.960;8.542;2023-07-31T00:27:31;41.43;;;38.93;;
2019;SDS011;1014;51.960;8.542;2023-07-31T00:29:59;42.13;;;39.47;;
2019;SDS011;1014;51.960;8.542;2023-07-31T00:32:26;40.83;;;38.37;;
2019;SDS011;1014;51.960;8.542;2023-07-31T00:34:53;40.60;;;38.30;;
2019;SDS011;1014;51.960;8.542;2023-07-31T00:37:20;41.70;;;39.40;;
2019;SDS011;1014;51.960;8.542;2023-07-31T00:39:47;40.03;;;37.63;;
2019;SDS011;1014;51.960;8.542;2023-07-31T00:42:14;39.60;;;37.40;;
2019;SDS011;1014;51.960;8.542;2023-07-31T00:44:41;40.60;;;38.10;;
2019;SDS011;1014;51.960;8.542;2023-07-31T00:47:10;40.93;;;38.37;;
2019;SDS011;1014;51.960;8.542;2023-07-31T00:49:37;40.10;;;37.80;;
2019;SDS011;1014;51.960;8.542;2023-07-31T00:52:04;42.93;;;40.53;;
2019;SDS011;1014;51.960;8.542;2023-07-31T00:54:31;42.33;;;39.93;;
2019;SDS011;1014;51.960;8.542;2023-07-31T00:56:58;40.83;;;38.47;;
2019;SDS011;1014;51.960;8.542;2023-07-31T00:59:26;42.00;;;39.60;;
2019;SDS011;1014;51.960;8.542;2023-07-31T01:01:53;43.27;;;40.87;;
2019;SDS011;1014;51.960;8.542;2023-07-31T01:04:22;38.53;;;36.40;;
2019;SDS011;1014;51.960;8.542;2023-07-31T01:06:52;43.80;;;41.30;;
2019;SDS011;1014;51.960;8.542;2023-07-31T01:09:27;38.33;;;36.20;;
2019;SDS011;1014;51.960;8.542;2023-07-31T01:11:56;40.77;;;38.47;;
2019;SDS011;1014;51.960;8.542;2023-07-31T01:14:24;38.47;;;36.27;;
2019;SDS011;1014;51.960;8.542;2023-07-31T01:16:51;38.60;;;36.40;;
2019;SDS011;1014;51.960;8.542;2023-07-31T01:19:20;36.13;;;34.23;;
2019;SDS011;1014;51.960;8.542;2023-07-31T01:21:56;37.40;;;35.60;;
2019;SDS011;1014;51.960;8.542;2023-07-31T01:24:28;41.60;;;39.40;;
2019;SDS011;1014;51.960;8.542;2023-07-31T01:26:58;40.03;;;37.70;;
2019;SDS011;1014;51.960;8.542;2023-07-31T01:29:29;41.60;;;39.50;;
2019;SDS011;1014;51.960;8.542;2023-07-31T01:32:00;40.90;;;38.90;;
2019;SDS011;1014;51.960;8.542;2023-07-31T01:34:27;38.60;;;36.70;;
2019;SDS011;1014;51.960;8.542;2023-07-31T01:36:55;43.73;;;41.53;;
2019;SDS011;1014;51.960;8.542;2023-07-31T01:39:23;37.20;;;35.40;;
2019;SDS011;1014;51.960;8.542;2023-07-31T01:41:50;39.30;;;37.20;;
2019;SDS011;1014;51.960;8.542;2023-07-31T01:44:20;42.57;;;40.37;;
2019;SDS011;1014;51.960;8.542;2023-07-31T01:46:47;41.33;;;39.20;;
2019;SDS011;1014;51.960;8.542;2023-07-31T01:49:14;40.13;;;38.00;;
2019;SDS011;1014;51.960;8.542;2023-07-31T01:51:41;41.50;;;39.27;;
2019;SDS011;1014;51.960;8.542;2023-07-31T01:54:08;43.63;;;41.53;;
2019;SDS011;1014;51.960;8.542;2023-07-31T01:56:36;43.37;;;41.10;;
2019;SDS011;1014;51.960;8.542;2023-07-31T01:59:03;44.20;;;42.00;;
2019;SDS011;1014;51.960;8.542;2023-07-31T02:01:31;42.43;;;40.13;;
2019;SDS011;1014;51.960;8.542;2023-07-31T02:03:58;42.50;;;40.20;;
2019;SDS011;1014;51.960;8.542;2023-07-31T02:06:25;44.57;;;42.33;;
2019;SDS011;1014;51.960;8.542;2023-07-31T02:08:52;44.30;;;42.00;;
2019;SDS011;1014;51.960;8.542;2023-07-31T02:11:19;47.33;;;44.90;;
2019;SDS011;1014;51.960;8.542;2023-07-31T02:13:46;52.73;;;49.87;;
2019;SDS011;1014;51.960;8.542;2023-07-31T02:16:13;52.80;;;49.67;;
2019;SDS011;1014;51.960;8.542;2023-07-31T02:18:42;46.90;;;44.50;;
2019;SDS011;1014;51.960;8.542;2023-07-31T02:21:09;47.43;;;44.93;;
2019;SDS011;1014;51.960;8.542;2023-07-31T02:23:36;47.23;;;44.73;;
2019;SDS011;1014;51.960;8.542;2023-07-31T02:26:03;48.03;;;45.43;;
2019;SDS011;1014;51.960;8.542;2023-07-31T02:28:30;49.90;;;47.33;;
2019;SDS011;1014;51.960;8.542;2023-07-31T02:30:57;47.43;;;44.93;;
2019;SDS011;1014;51.960;8.542;2023-07-31T02:33:24;51.33;;;48.30;;
2019;SDS011;1014;51.960;8.542;2023-07-31T02:35:52;48.63;;;46.03;;
2019;SDS011;1014;51.960;8.542;2023-07-31T02:38:19;48.70;;;46.10;;
2019;SDS011;1014;51.960;8.542;2023-07-31T02:40:46;52.23;;;49.53;;
2019;SDS011;1014;51.960;8.542;2023-07-31T02:43:14;50.30;;;47.40;;
2019;SDS011;1014;51.960;8.542;2023-07-31T02:45:41;50.20;;;47.47;;
2019;SDS011;1014;51.960;8.542;2023-07-31T02:48:08;51.30;;;48.47;;
2019;SDS011;1014;51.960;8.542;2023-07-31T02:50:35;50.00;;;47.30;;
2019;SDS011;1014;51.960;8.542;2023-07-31T02:53:03;50.13;;;47.43;;
2019;SDS011;1014;51.960;8.542;2023-07-31T02:55:30;51.53;;;48.60;;
2019;SDS011;1014;51.960;8.542;2023-07-31T02:57:57;53.03;;;50.03;;
2019;SDS011;1014;51.960;8.542;2023-07-31T03:00:24;51.50;;;48.80;;
2019;SDS011;1014;51.960;8.542;2023-07-31T03:02:51;51.80;;;48.83;;
2019;SDS011;1014;51.960;8.542;2023-07-31T03:05:18;51.83;;;48.83;;
2019;SDS011;1014;51.960;8.542;2023-07-31T03:07:45;52.17;;;49.37;;
2019;SDS011;1014;51.960;8.542;2023-07-31T03:10:14;51.33;;;48.43;;
2019;SDS011;1014;51.960;8.542;2023-07-31T03:12:41;50.40;;;47.60;;
2019;SDS011;1014;51.960;8.542;2023-07-31T03:15:08;52.33;;;49.27;;
2019;SDS011;1014;51.960;8.542;2023-07-31T03:17:35;51.50;;;48.47;;
2019;SDS011;1014;51.960;8.542;2023-07-31T03:20:03;56.53;;;52.77;;
2019;SDS011;1014;51.960;8.542;2023-07-31T03:22:30;56.13;;;52.43;;
2019;SDS011;1014;51.960;8.542;2023-07-31T03:24:57;57.80;;;54.10;;
2019;SDS011;1014;51.960;8.542;2023-07-31T03:27:25;55.40;;;50.83;;
2019;SDS011;1014;51.960;8.542;2023-07-31T03:29:53;53.33;;;49.70;;
2019;SDS011;1014;51.960;8.542;2023-07-31T03:32:20;55.33;;;51.30;;
2019;SDS011;1014;51.960;8.542;2023-07-31T03:34:47;52.07;;;48.47;;
2019;SDS011;1014;51.960;8.542;2023-07-31T03:37:14;60.73;;;56.63;;
2019;SDS011;1014;51.960;8.542;2023-07-31T03:39:41;62.30;;;57.90;;
2019;SDS011;1014;51.960;8.542;2023-07-31T03:42:08;64.10;;;59.00;;
2019;SDS011;1014;51.960;8.542;2023-07-31T03:44:36;60.87;;;56.27;;
2019;SDS011;1014;51.960;8.542;2023-07-31T03:47:04;61.00;;;56.70;;
2019;SDS011;1014;51.960;8.542;2023-07-31T03:49:31;62.47;;;57.97;;
2019;SDS011;1014;51.960;8.542;2023-07-31T03:51:58;59.13;;;55.17;;
2019;SDS011;1014;51.960;8.542;2023-07-31T03:54:25;59.67;;;55.30;;
2019;SDS011;1014;51.960;8.542;2023-07-31T03:56:52;56.23;;;52.23;;
2019;SDS011;1014;51.960;8.542;2023-07-31T03:59:19;55.20;;;50.40;;
2019;SDS011;1014;51.960;8.542;2023-07-31T04:01:48;57.87;;;53.40;;
2019;SDS011;1014;51.960;8.542;2023-07-31T04:04:15;62.97;;;57.77;;
2019;SDS011;1014;51.960;8.542;2023-07-31T04:06:42;61.33;;;56.70;;
2019;SDS011;1014;51.960;8.542;2023-07-31T04:09:09;57.43;;;52.80;;
2019;SDS011;1014;51.960;8.542;2023-07-31T04:11:36;56.77;;;52.27;;
2019;SDS011;1014;51.960;8.542;2023-07-31T04:14:04;58.83;;;54.20;;
2019;SDS011;1014;51.960;8.542;2023-07-31T04:16:31;58.43;;;53.93;;
2019;SDS011;1014;51.960;8.542;2023-07-31T04:18:59;59.30;;;54.93;;
2019;SDS011;1014;51.960;8.542;2023-07-31T04:21:27;57.43;;;52.60;;
2019;SDS011;1014;51.960;8.542;2023-07-31T04:23:54;57.63;;;52.83;;
2019;SDS011;1014;51.960;8.542;2023-07-31T04:26:23;61.17;;;55.97;;
2019;SDS011;1014;51.960;8.542;2023-07-31T04:28:50;56.03;;;51.80;;
2019;SDS011;1014;51.960;8.542;2023-07-31T04:31:17;59.00;;;54.67;;
2019;SDS011;1014;51.960;8.542;2023-07-31T04:33:44;57.67;;;52.60;;
2019;SDS011;1014;51.960;8.542;2023-07-31T04:36:12;58.10;;;53.60;;
2019;SDS011;1014;51.960;8.542;2023-07-31T04:38:40;56.80;;;52.30;;
2019;SDS011;1014;51.960;8.542;2023-07-31T04:41:07;52.33;;;48.43;;
2019;SDS011;1014;51.960;8.542;2023-07-31T04:43:34;56.33;;;51.97;;
2019;SDS011;1014;51.960;8.542;2023-07-31T04:46:04;55.20;;;51.10;;
2019;SDS011;1014;51.960;8.542;2023-07-31T04:48:31;57.87;;;53.53;;
2019;SDS011;1014;51.960;8.542;2023-07-31T04:50:58;55.17;;;50.77;;
2019;SDS011;1014;51.960;8.542;2023-07-31T04:53:26;56.27;;;51.83;;
2019;SDS011;1014;51.960;8.542;2023-07-31T04:55:53;54.97;;;51.17;;
2019;SDS011;1014;51.960;8.542;2023-07-31T04:58:20;53.07;;;49.23;;
2019;SDS011;1014;51.960;8.542;2023-07-31T05:00:47;53.70;;;49.70;;
2019;SDS011;1014;51.960;8.542;2023-07-31T05:03:14;53.33;;;48.73;;
2019;SDS011;1014;51.960;8.542;2023-07-31T05:05:41;52.50;;;49.00;;
2019;SDS011;1014;51.960;8.542;2023-07-31T05:08:08;48.00;;;44.40;;
2019;SDS011;1014;51.960;8.542;2023-07-31T05:10:36;44.23;;;41.43;;
2019;SDS011;1014;51.960;8.542;2023-07-31T05:13:03;42.33;;;39.67;;
2019;SDS011;1014;51.960;8.542;2023-07-31T05:15:30;46.03;;;42.50;;
2019;SDS011;1014;51.960;8.542;2023-07-31T05:17:57;43.50;;;40.27;;
2019;SDS011;1014;51.960;8.542;2023-07-31T05:20:24;46.77;;;43.17;;
2019;SDS011;1014;51.960;8.542;2023-07-31T05:22:52;43.90;;;40.30;;
2019;SDS011;1014;51.960;8.542;2023-07-31T05:25:19;43.20;;;39.93;;
2019;SDS011;1014;51.960;8.542;2023-07-31T05:27:48;44.13;;;40.63;;
2019;SDS011;1014;51.960;8.542;2023-07-31T05:30:15;43.20;;;40.10;;
2019;SDS011;1014;51.960;8.542;2023-07-31T05:32:42;43.37;;;40.17;;
2019;SDS011;1014;51.960;8.542;2023-07-31T05:35:09;41.00;;;37.70;;
2019;SDS011;1014;51.960;8.542;2023-07-31T05:37:36;40.87;;;37.83;;
2019;SDS011;1014;51.960;8.542;2023-07-31T05:40:03;40.60;;;37.57;;
2019;SDS011;1014;51.960;8.542;2023-07-31T05:42:30;40.13;;;36.80;;
2019;SDS011;1014;51.960;8.542;2023-07-31T05:44:59;41.00;;;37.60;;
2019;SDS011;1014;51.960;8.542;2023-07-31T05:47:26;41.60;;;38.23;;
2019;SDS011;1014;51.960;8.542;2023-07-31T05:49:53;40.40;;;37.33;;
2019;SDS011;1014;51.960;8.542;2023-07-31T05:52:20;39.47;;;36.57;;
2019;SDS011;1014;51.960;8.542;2023-07-31T05:54:47;39.07;;;35.57;;
2019;SDS011;1014;51.960;8.542;2023-07-31T05:57:15;41.93;;;38.47;;
2019;SDS011;1014;51.960;8.542;2023-07-31T05:59:42;39.83;;;36.50;;
2019;SDS011;1014;51.960;8.542;2023-07-31T06:02:10;41.50;;;38.40;;
2019;SDS011;1014;51.960;8.542;2023-07-31T06:04:38;40.27;;;37.47;;
2019;SDS011;1014;51.960;8.542;2023-07-31T06:07:05;38.83;;;35.83;;
2019;SDS011;1014;51.960;8.542;2023-07-31T06:09:32;39.90;;;36.67;;
2019;SDS011;1014;51.960;8.542;2023-07-31T06:11:59;41.17;;;37.40;;
2019;SDS011;1014;51.960;8.542;2023-07-31T06:14:26;39.43;;;36.57;;
2019;SDS011;1014;51.960;8.542;2023-07-31T06:16:53;36.67;;;34.17;;
2019;SDS011;1014;51.960;8.542;2023-07-31T06:19:21;34.20;;;31.40;;
2019;SDS011;1014;51.960;8.542;2023-07-31T06:21:48;32.50;;;30.00;;
2019;SDS011;1014;51.960;8.542;2023-07-31T06:24:15;34.67;;;31.70;;
2019;SDS011;1014;51.960;8.542;2023-07-31T06:26:45;33.43;;;30.80;;
2019;SDS011;1014;51.960;8.542;2023-07-31T06:29:12;32.17;;;29.40;;
2019;SDS011;1014;51.960;8.542;2023-07-31T06:31:40;31.80;;;29.60;;
2019;SDS011;1014;51.960;8.542;2023-07-31T06:34:07;33.27;;;30.43;;
2019;SDS011;1014;51.960;8.542;2023-07-31T06:36:36;35.17;;;32.33;;
2019;SDS011;1014;51.960;8.542;2023-07-31T06:39:03;34.50;;;31.30;;
2019;SDS011;1014;51.960;8.542;2023-07-31T06:41:30;31.80;;;29.53;;
2019;SDS011;1014;51.960;8.542;2023-07-31T06:43:57;32.93;;;30.50;;
2019;SDS011;1014;51.960;8.542;2023-07-31T06:46:24;33.33;;;30.63;;
2019;SDS011;1014;51.960;8.542;2023-07-31T06:48:51;35.20;;;32.40;;
2019;SDS011;1014;51.960;8.542;2023-07-31T06:51:18;33.33;;;30.70;;
2019;SDS011;1014;51.960;8.542;2023-07-31T06:53:46;36.10;;;32.97;;
2019;SDS011;1014;51.960;8.542;2023-07-31T06:56:13;32.00;;;29.60;;
2019;SDS011;1014;51.960;8.542;2023-07-31T06:58:40;34.47;;;31.83;;
2019;SDS011;1014;51.960;8.542;2023-07-31T07:01:08;32.93;;;30.67;;
2019;SDS011;1014;51.960;8.542;2023-07-31T07:03:35;35.50;;;32.30;;
2019;SDS011;1014;51.960;8.542;2023-07-31T07:06:02;36.47;;;33.87;;
2019;SDS011;1014;51.960;8.542;2023-07-31T07:08:29;36.47;;;33.80;;
2019;SDS011;1014;51.960;8.542;2023-07-31T07:10:57;36.07;;;33.43;;
2019;SDS011;1014;51.960;8.542;2023-07-31T07:13:24;37.83;;;34.83;;
2019;SDS011;1014;51.960;8.542;2023-07-31T07:15:51;37.37;;;34.40;;
2019;SDS011;1014;51.960;8.542;2023-07-31T07:18:18;34.77;;;32.30;;
2019;SDS011;1014;51.960;8.542;2023-07-31T07:20:46;33.10;;;30.80;;
2019;SDS011;1014;51.960;8.542;2023-07-31T07:23:13;30.77;;;28.67;;
2019;SDS011;1014;51.960;8.542;2023-07-31T07:25:41;32.97;;;30.87;;
2019;SDS011;1014;51.960;8.542;2023-07-31T07:28:09;34.67;;;31.80;;
2019;SDS011;1014;51.960;8.542;2023-07-31T07:30:36;33.53;;;31.33;;
2019;SDS011;1014;51.960;8.542;2023-07-31T07:33:03;36.43;;;33.67;;
2019;SDS011;1014;51.960;8.542;2023-07-31T07:35:32;34.97;;;32.13;;
2019;SDS011;1014;51.960;8.542;2023-07-31T07:37:59;35.50;;;32.60;;
2019;SDS011;1014;51.960;8.542;2023-07-31T07:40:26;36.07;;;33.13;;
2019;SDS011;1014;51.960;8.542;2023-07-31T07:42:53;37.47;;;34.97;;
2019;SDS011;1014;51.960;8.542;2023-07-31T07:45:22;40.07;;;37.30;;
2019;SDS011;1014;51.960;8.542;2023-07-31T07:47:49;43.60;;;40.20;;
2019;SDS011;1014;51.960;8.542;2023-07-31T07:50:16;36.73;;;34.13;;
2019;SDS011;1014;51.960;8.542;2023-07-31T07:52:43;39.40;;;36.57;;
2019;SDS011;1014;51.960;8.542;2023-07-31T07:55:10;50.33;;;47.03;;
2019;SDS011;1014;51.960;8.542;2023-07-31T07:57:37;48.63;;;45.37;;
2019;SDS011;1014;51.960;8.542;2023-07-31T08:00:05;52.03;;;48.67;;
2019;SDS011;1014;51.960;8.542;2023-07-31T08:02:36;52.73;;;49.47;;
2019;SDS011;1014;51.960;8.542;2023-07-31T08:05:04;51.23;;;48.13;;
2019;SDS011;1014;51.960;8.542;2023-07-31T08:07:31;50.23;;;47.33;;
2019;SDS011;1014;51.960;8.542;2023-07-31T08:09:58;54.83;;;51.30;;
2019;SDS011;1014;51.960;8.542;2023-07-31T08:12:25;50.10;;;46.87;;
2019;SDS011;1014;51.960;8.542;2023-07-31T08:14:52;52.20;;;49.07;;
2019;SDS011;1014;51.960;8.542;2023-07-31T08:17:19;53.20;;;49.87;;
2019;SDS011;1014;51.960;8.542;2023-07-31T08:19:47;53.60;;;50.60;;
2019;SDS011;1014;51.960;8.542;2023-07-31T08:22:14;51.40;;;48.60;;
2019;SDS011;1014;51.960;8.542;2023-07-31T08:24:41;54.50;;;51.00;;
2019;SDS011;1014;51.960;8.542;2023-07-31T08:27:08;53.60;;;50.40;;
2019;SDS011;1014;51.960;8.542;2023-07-31T08:29:36;51.97;;;48.73;;
2019;SDS011;1014;51.960;8.542;2023-07-31T08:32:03;53.90;;;50.73;;
2019;SDS011;1014;51.960;8.542;2023-07-31T08:34:30;54.70;;;51.53;;
2019;SDS011;1014;51.960;8.542;2023-07-31T08:36:59;55.10;;;51.30;;
2019;SDS011;1014;51.960;8.542;2023-07-31T08:39:26;52.73;;;49.20;;
2019;SDS011;1014;51.960;8.542;2023-07-31T08:41:57;50.57;;;47.57;;
2019;SDS011;1014;51.960;8.542;2023-07-31T08:44:24;54.77;;;51.40;;
2019;SDS011;1014;51.960;8.542;2023-07-31T08:46:51;55.97;;;52.33;;
2019;SDS011;1014;51.960;8.542;2023-07-31T08:49:19;52.70;;;49.03;;
2019;SDS011;1014;51.960;8.542;2023-07-31T08:51:47;54.87;;;51.47;;
2019;SDS011;1014;51.960;8.542;2023-07-31T08:54:17;53.63;;;50.33;;
2019;SDS011;1014;51.960;8.542;2023-07-31T08:56:45;58.70;;;55.17;;
2019;SDS011;1014;51.960;8.542;2023-07-31T08:59:12;52.27;;;49.20;;
2019;SDS011;1014;51.960;8.542;2023-07-31T09:01:43;54.63;;;51.10;;
2019;SDS011;1014;51.960;8.542;2023-07-31T09:04:10;55.70;;;52.33;;
2019;SDS011;1014;51.960;8.542;2023-07-31T09:06:39;51.60;;;48.80;;
2019;SDS011;1014;51.960;8.542;2023-07-31T09:09:07;54.40;;;51.13;;
2019;SDS011;1014;51.960;8.542;2023-07-31T09:11:35;48.80;;;45.80;;
2019;SDS011;1014;51.960;8.542;2023-07-31T09:14:03;49.70;;;46.40;;
2019;SDS011;1014;51.960;8.542;2023-07-31T09:16:34;50.77;;;47.90;;
2019;SDS011;1014;51.960;8.542;2023-07-31T09:19:01;48.00;;;45.30;;
2019;SDS011;1014;51.960;8.542;2023-07-31T09:21:29;49.03;;;45.67;;
2019;SDS011;1014;51.960;8.542;2023-07-31T09:23:56;48.03;;;45.17;;
2019;SDS011;1014;51.960;8.542;2023-07-31T09:26:30;46.10;;;43.40;;
2019;SDS011;1014;51.960;8.542;2023-07-31T09:28:59;48.17;;;45.47;;
2019;SDS011;1014;51.960;8.542;2023-07-31T09:31:33;47.33;;;44.73;;
2019;SDS011;1014;51.960;8.542;2023-07-31T09:34:00;49.10;;;46.00;;
2019;SDS011;1014;51.960;8.542;2023-07-31T09:36:28;47.43;;;44.83;;
2019;SDS011;1014;51.960;8.542;2023-07-31T09:38:57;47.27;;;44.30;;
2019;SDS011;1014;51.960;8.542;2023-07-31T09:41:25;48.83;;;46.00;;
2019;SDS011;1014;51.960;8.542;2023-07-31T09:43:55;51.60;;;48.30;;
2019;SDS011;1014;51.960;8.542;2023-07-31T09:46:24;51.50;;;48.17;;
2019;SDS011;1014;51.960;8.542;2023-07-31T09:48:53;50.30;;;47.43;;
2019;SDS011;1014;51.960;8.542;2023-07-31T09:51:29;49.27;;;46.07;;
2019;SDS011;1014;51.960;8.542;2023-07-31T09:53:57;49.00;;;46.10;;
2019;SDS011;1014;51.960;8.542;2023-07-31T09:56:24;53.03;;;50.27;;
2019;SDS011;1014;51.960;8.542;2023-07-31T09:58:52;52.63;;;49.53;;
2019;SDS011;1014;51.960;8.542;2023-07-31T10:01:20;51.07;;;48.17;;
2019;SDS011;1014;51.960;8.542;2023-07-31T10:03:49;50.50;;;47.80;;
2019;SDS011;1014;51.960;8.542;2023-07-31T10:06:16;51.73;;;48.93;;
2019;SDS011;1014;51.960;8.542;2023-07-31T10:08:44;54.47;;;51.47;;
2019;SDS011;1014;51.960;8.542;2023-07-31T10:11:14;53.57;;;50.37;;
2019;SDS011;1014;51.960;8.542;2023-07-31T10:13:42;51.20;;;48.50;;
2019;SDS011;1014;51.960;8.542;2023-07-31T10:16:09;52.53;;;49.60;;
2019;SDS011;1014;51.960;8.542;2023-07-31T10:18:37;53.77;;;50.80;;
2019;SDS011;1014;51.960;8.542;2023-07-31T10:21:06;52.77;;;50.03;;
2019;SDS011;1014;51.960;8.542;2023-07-31T10:23:33;53.70;;;50.30;;
2019;SDS011;1014;51.960;8.542;2023-07-31T10:26:01;50.67;;;47.43;;
2019;SDS011;1014;51.960;8.542;2023-07-31T10:28:30;50.77;;;48.07;;
2019;SDS011;1014;51.960;8.542;2023-07-31T10:30:59;50.63;;;47.70;;
2019;SDS011;1014;51.960;8.542;2023-07-31T10:33:27;46.03;;;43.73;;
2019;SDS011;1014;51.960;8.542;2023-07-31T10:38:38;44.63;;;42.33;;
2019;SDS011;1014;51.960;8.542;2023-07-31T10:41:07;46.13;;;43.73;;
2019;SDS011;1014;51.960;8.542;2023-07-31T10:43:35;45.97;;;43.67;;
2019;SDS011;1014;51.960;8.542;2023-07-31T10:46:06;45.70;;;43.40;;
2019;SDS011;1014;51.960;8.542;2023-07-31T10:48:34;46.90;;;44.40;;
2019;SDS011;1014;51.960;8.542;2023-07-31T10:51:02;47.37;;;44.97;;
2019;SDS011;1014;51.960;8.542;2023-07-31T10:53:33;49.17;;;46.57;;
2019;SDS011;1014;51.960;8.542;2023-07-31T10:56:01;47.77;;;45.20;;
2019;SDS011;1014;51.960;8.542;2023-07-31T10:58:29;46.17;;;43.87;;
2019;SDS011;1014;51.960;8.542;2023-07-31T11:00:58;49.40;;;46.90;;
2019;SDS011;1014;51.960;8.542;2023-07-31T11:03:26;50.80;;;47.83;;
2019;SDS011;1014;51.960;8.542;2023-07-31T11:05:55;45.83;;;43.43;;
2019;SDS011;1014;51.960;8.542;2023-07-31T11:08:28;48.37;;;45.97;;
2019;SDS011;1014;51.960;8.542;2023-07-31T11:11:05;48.50;;;46.00;;
2019;SDS011;1014;51.960;8.542;2023-07-31T11:13:34;47.90;;;45.37;;
2019;SDS011;1014;51.960;8.542;2023-07-31T11:16:01;42.80;;;40.70;;
2019;SDS011;1014;51.960;8.542;2023-07-31T11:18:28;43.53;;;41.43;;
2019;SDS011;1014;51.960;8.542;2023-07-31T11:20:55;40.63;;;38.63;;
2019;SDS011;1014;51.960;8.542;2023-07-31T11:23:22;40.70;;;38.70;;
2019;SDS011;1014;51.960;8.542;2023-07-31T11:25:50;43.63;;;41.43;;
2019;SDS011;1014;51.960;8.542;2023-07-31T11:28:19;44.97;;;42.50;;
2019;SDS011;1014;51.960;8.542;2023-07-31T11:30:46;42.87;;;40.87;;
2019;SDS011;1014;51.960;8.542;2023-07-31T11:33:13;43.17;;;40.97;;
2019;SDS011;1014;51.960;8.542;2023-07-31T11:35:41;43.37;;;41.27;;
2019;SDS011;1014;51.960;8.542;2023-07-31T11:38:11;40.63;;;38.77;;
2019;SDS011;1014;51.960;8.542;2023-07-31T11:40:40;44.63;;;42.37;;
2019;SDS011;1014;51.960;8.542;2023-07-31T11:43:08;42.30;;;40.30;;
2019;SDS011;1014;51.960;8.542;2023-07-31T11:45:37;40.30;;;38.40;;
2019;SDS011;1014;51.960;8.542;2023-07-31T11:48:06;41.17;;;39.07;;
2019;SDS011;1014;51.960;8.542;2023-07-31T11:50:33;41.10;;;39.07;;
2019;SDS011;1014;51.960;8.542;2023-07-31T11:53:01;38.90;;;37.00;;
2019;SDS011;1014;51.960;8.542;2023-07-31T11:55:30;42.27;;;40.13;;
2019;SDS011;1014;51.960;8.542;2023-07-31T11:57:57;39.87;;;37.97;;
2019;SDS011;1014;51.960;8.542;2023-07-31T12:00:26;38.47;;;36.63;;
2019;SDS011;1014;51.960;8.542;2023-07-31T12:02:55;41.03;;;39.03;;
2019;SDS011;1014;51.960;8.542;2023-07-31T12:05:22;36.97;;;34.93;;
2019;SDS011;1014;51.960;8.542;2023-07-31T12:07:50;36.57;;;34.73;;
2019;SDS011;1014;51.960;8.542;2023-07-31T12:10:24;35.03;;;33.33;;
2019;SDS011;1014;51.960;8.542;2023-07-31T12:13:01;36.90;;;35.10;;
2019;SDS011;1014;51.960;8.542;2023-07-31T12:15:29;34.60;;;32.90;;
2019;SDS011;1014;51.960;8.542;2023-07-31T12:17:58;34.80;;;33.13;;
2019;SDS011;1014;51.960;8.542;2023-07-31T12:20:25;36.00;;;34.30;;
2019;SDS011;1014;51.960;8.542;2023-07-31T12:22:55;33.03;;;31.33;;
2019;SDS011;1014;51.960;8.542;2023-07-31T12:25:23;34.50;;;32.83;;
2019;SDS011;1014;51.960;8.542;2023-07-31T12:27:55;31.87;;;30.37;;
2019;SDS011;1014;51.960;8.542;2023-07-31T12:30:28;32.97;;;31.37;;
2019;SDS011;1014;51.960;8.542;2023-07-31T12:32:55;32.57;;;30.97;;
2019;SDS011;1014;51.960;8.542;2023-07-31T12:35:24;33.73;;;32.03;;
2019;SDS011;1014;51.960;8.542;2023-07-31T12:37:51;32.00;;;30.43;;
2019;SDS011;1014;51.960;8.542;2023-07-31T12:40:18;32.63;;;31.13;;
2019;SDS011;1014;51.960;8.542;2023-07-31T12:42:45;32.90;;;31.30;;
2019;SDS011;1014;51.960;8.542;2023-07-31T12:45:14;33.00;;;31.40;;
2019;SDS011;1014;51.960;8.542;2023-07-31T12:47:41;33.83;;;32.23;;
2019;SDS011;1014;51.960;8.542;2023-07-31T12:50:08;33.50;;;31.90;;
2019;SDS011;1014;51.960;8.542;2023-07-31T12:52:36;39.27;;;37.03;;
2019;SDS011;1014;51.960;8.542;2023-07-31T12:55:04;42.40;;;40.30;;
2019;SDS011;1014;51.960;8.542;2023-07-31T12:57:31;44.30;;;42.00;;
2019;SDS011;1014;51.960;8.542;2023-07-31T12:59:58;44.03;;;41.83;;
2019;SDS011;1014;51.960;8.542;2023-07-31T13:02:25;48.53;;;46.13;;
2019;SDS011;1014;51.960;8.542;2023-07-31T13:04:52;47.03;;;44.60;;
2019;SDS011;1014;51.960;8.542;2023-07-31T13:07:21;44.03;;;41.77;;
2019;SDS011;1014;51.960;8.542;2023-07-31T13:09:49;44.57;;;42.23;;
2019;SDS011;1014;51.960;8.542;2023-07-31T13:12:16;43.10;;;40.87;;
2019;SDS011;1014;51.960;8.542;2023-07-31T13:14:43;40.60;;;38.70;;
2019;SDS011;1014;51.960;8.542;2023-07-31T13:17:11;37.70;;;35.90;;
2019;SDS011;1014;51.960;8.542;2023-07-31T13:19:38;38.47;;;36.37;;
2019;SDS011;1014;51.960;8.542;2023-07-31T13:22:05;35.97;;;34.17;;
2019;SDS011;1014;51.960;8.542;2023-07-31T13:24:32;36.80;;;34.93;;
2019;SDS011;1014;51.960;8.542;2023-07-31T13:27:00;36.43;;;34.73;;
2019;SDS011;1014;51.960;8.542;2023-07-31T13:29:27;30.87;;;29.30;;
2019;SDS011;1014;51.960;8.542;2023-07-31T13:31:55;30.77;;;29.20;;
2019;SDS011;1014;51.960;8.542;2023-07-31T13:34:22;33.00;;;31.40;;
2019;SDS011;1014;51.960;8.542;2023-07-31T13:36:49;30.90;;;29.50;;
2019;SDS011;1014;51.960;8.542;2023-07-31T13:39:16;30.47;;;28.93;;
2019;SDS011;1014;51.960;8.542;2023-07-31T13:41:43;28.33;;;26.80;;
2019;SDS011;1014;51.960;8.542;2023-07-31T13:44:11;28.33;;;27.03;;
2019;SDS011;1014;51.960;8.542;2023-07-31T13:46:38;26.30;;;25.10;;
2019;SDS011;1014;51.960;8.542;2023-07-31T13:49:05;25.60;;;24.30;;
2019;SDS011;1014;51.960;8.542;2023-07-31T13:51:32;27.90;;;26.60;;
2019;SDS011;1014;51.960;8.542;2023-07-31T13:53:59;26.37;;;25.03;;
2019;SDS011;1014;51.960;8.542;2023-07-31T13:56:26;23.73;;;22.57;;
2019;SDS011;1014;51.960;8.542;2023-07-31T13:58:54;22.93;;;21.70;;
2019;SDS011;1014;51.960;8.542;2023-07-31T14:01:22;21.73;;;20.53;;
2019;SDS011;1014;51.960;8.542;2023-07-31T14:03:49;22.70;;;21.60;;
2019;SDS011;1014;51.960;8.542;2023-07-31T14:06:16;22.40;;;21.20;;
2019;SDS011;1014;51.960;8.542;2023-07-31T14:08:43;21.80;;;20.63;;
2019;SDS011;1014;51.960;8.542;2023-07-31T14:11:10;20.50;;;19.43;;
2019;SDS011;1014;51.960;8.542;2023-07-31T14:13:37;21.80;;;20.67;;
2019;SDS011;1014;51.960;8.542;2023-07-31T14:16:05;21.30;;;20.20;;
2019;SDS011;1014;51.960;8.542;2023-07-31T14:18:33;21.50;;;20.50;;
2019;SDS011;1014;51.960;8.542;2023-07-31T14:21:00;21.50;;;20.20;;
2019;SDS011;1014;51.960;8.542;2023-07-31T14:23:27;20.23;;;19.13;;
2019;SDS011;1014;51.960;8.542;2023-07-31T14:25:54;20.87;;;19.57;;
2019;SDS011;1014;51.960;8.542;2023-07-31T14:28:21;19.90;;;18.87;;
2019;SDS011;1014;51.960;8.542;2023-07-31T14:30:48;20.80;;;19.70;;
2019;SDS011;1014;51.960;8.542;2023-07-31T14:33:16;21.97;;;20.87;;
2019;SDS011;1014;51.960;8.542;2023-07-31T14:35:44;21.90;;;20.77;;
2019;SDS011;1014;51.960;8.542;2023-07-31T14:38:11;22.50;;;21.20;;
2019;SDS011;1014;51.960;8.542;2023-07-31T14:40:38;21.70;;;20.60;;
2019;SDS011;1014;51.960;8.542;2023-07-31T14:43:05;22.13;;;20.60;;
2019;SDS011;1014;51.960;8.542;2023-07-31T14:45:33;21.47;;;20.07;;
2019;SDS011;1014;51.960;8.542;2023-07-31T14:48:00;20.20;;;19.20;;
2019;SDS011;1014;51.960;8.542;2023-07-31T14:50:27;19.90;;;18.90;;
2019;SDS011;1014;51.960;8.542;2023-07-31T14:52:56;19.93;;;19.03;;